Alexandria, AL

2:28 PM CST on January 26, 2015 (GMT -0600)
Weaver, AL | Change Station
CLOSE
Current Station
Personal Weather Station
Location: Weaver, AL
Elevation: 760 ft
Nearby Weather Stations

Elev 760 ft 33.75 °N, 85.84 °W | Updated 0 second ago

Overcast
Overcast
41.0 °F
Feels Like 41 °F
N
0.0
Wind Variable Wind from WNW
Gusts 7.0 mph

Today
High -- | Low -- °F
--% Chance of Precip.
Yesterday
High -- | Low -- °F
Precip. -- in
6:44 AM 5:08 PM
Waxing Crescent, 46% visible
Pressure 29.99 in
Visibility 10.0 miles
Clouds Mostly Cloudy 2700 ft
Windchill 41 °F
Dew Point 33 °F
Humidity 73%
Rainfall 0.00 in
Snow Depth Not available.
UV 2 out of 12
Pollen 1.60 out of 12
Air Quality Not available.
Flu Activity Not available.
METAR KANB 261953Z AUTO 31012G21KT 10SM BKN027 06/M01 A2997 RMK AO2 SLP154 T00561011

More Conditions Fewer Conditions

Pressure 29.99 in
Visibility 10.0 miles
Clouds Mostly Cloudy 2700 ft
Windchill 41 °F
Dew Point 33 °F
Humidity 73%
Rainfall 0.00 in
Snow Depth Not available.
UV 2 out of 12
Pollen 1.60 out of 12
Air Quality Not available.
Flu Activity Not available.
METAR KANB 261953Z AUTO 31012G21KT 10SM BKN027 06/M01 A2997 RMK AO2 SLP154 T00561011

More Conditions Fewer Conditions

10-Day Weather Forecast

Almanac

Astronomy

Jan. 26, 2015 Rise Set
Actual Time
Civil Twilight
Nautical Twilight
Astronomical Twilight
Moon
Length of Visible Light
Length of Day
Tomorrow will be .
, % of the Moon is Illuminated

Today's Extremes

State Highs State Lows

Community

WunderPhotos

Upload Photos

1,790,350 photos uploaded!

WunderBlogs® & News

Nearby

Air Quality

  Air Quality AQ Index Pollutant
Not available.

Snow Depth

Station Depth Elevation

Earthquake Activity

City Distance Mag. Time & Date
Minimum magnitude displayed is 2.5.

Coastal Water Temperatures

Place Temperature

Nearby Weather Stations